Time;durP1;ratioP1;P1;durP2;ratioP2;P2;SDS_P1;SDS_P2;PMS_P1;PMS_P2;Temp;Humidity;BMP_temperature;BMP_pressure;BME280_temperature;BME280_humidity;BME280_pressure;Samples;Min_cycle;Max_cycle;Signal;HPM_P1;HPM_P2
2023/03/15 00:01:51;;;;;;;1.02;0.85;;;22.60;37.00;;;;;;4970540;28;20126;-59
2023/03/15 00:04:20;;;;;;;0.60;0.60;;;22.60;37.00;;;;;;4970307;28;20046;-59
2023/03/15 00:06:47;;;;;;;0.82;0.73;;;22.60;37.00;;;;;;4970673;28;20051;-60
2023/03/15 00:09:14;;;;;;;1.20;0.90;;;22.60;37.00;;;;;;4971328;28;20102;-59
2023/03/15 00:11:41;;;;;;;0.73;0.70;;;22.60;37.00;;;;;;4971356;28;20057;-59
2023/03/15 00:14:09;;;;;;;0.73;0.73;;;22.60;37.00;;;;;;4967830;28;20085;-59
2023/03/15 00:16:36;;;;;;;0.65;0.60;;;22.60;37.00;;;;;;4970399;28;20407;-59
2023/03/15 00:19:03;;;;;;;0.88;0.88;;;22.60;37.00;;;;;;4968292;28;20571;-59
2023/03/15 00:21:30;;;;;;;0.82;0.82;;;22.60;37.00;;;;;;4970699;28;20050;-59
2023/03/15 00:23:57;;;;;;;0.75;0.75;;;22.50;37.00;;;;;;4966524;28;20476;-59
2023/03/15 00:26:24;;;;;;;0.90;0.90;;;22.50;37.00;;;;;;4965316;28;20068;-59
2023/03/15 00:28:52;;;;;;;2.08;0.82;;;22.50;37.00;;;;;;4971189;28;20061;-60
2023/03/15 00:31:21;;;;;;;0.70;0.70;;;22.50;37.30;;;;;;4970618;28;20233;-59
2023/03/15 00:33:52;;;;;;;1.38;0.73;;;22.50;37.00;;;;;;4968229;28;20055;-59
2023/03/15 00:36:23;;;;;;;0.75;0.70;;;22.50;37.10;;;;;;4938337;29;20055;-59
2023/03/15 00:38:52;;;;;;;1.20;0.68;;;22.50;37.00;;;;;;4967751;28;20081;-60
2023/03/15 00:41:21;;;;;;;0.90;0.90;;;22.50;37.10;;;;;;4969792;28;20094;-59
2023/03/15 00:43:48;;;;;;;0.60;0.60;;;22.50;37.10;;;;;;4968476;28;20105;-59
2023/03/15 00:46:16;;;;;;;0.85;0.85;;;22.50;37.10;;;;;;4970114;28;20526;-59
2023/03/15 00:48:47;;;;;;;0.57;0.57;;;22.50;37.10;;;;;;4967185;28;20054;-59
2023/03/15 00:51:20;;;;;;;0.55;0.55;;;22.50;37.10;;;;;;4971412;28;20487;-59
2023/03/15 00:53:49;;;;;;;0.63;0.63;;;22.50;37.10;;;;;;4970060;28;20381;-59
2023/03/15 00:56:23;;;;;;;0.60;0.60;;;22.50;37.10;;;;;;4971880;28;20448;-59
2023/03/15 00:58:51;;;;;;;0.70;0.70;;;22.50;37.10;;;;;;4970347;28;20142;-59
2023/03/15 01:01:22;;;;;;;0.80;0.77;;;22.50;37.10;;;;;;4969605;28;20451;-59
2023/03/15 01:03:50;;;;;;;0.50;0.50;;;22.50;37.10;;;;;;4970456;28;20145;-59
2023/03/15 01:06:22;;;;;;;1.05;0.95;;;22.50;37.10;;;;;;4973372;28;20049;-59
2023/03/15 01:08:50;;;;;;;0.65;0.65;;;22.40;37.00;;;;;;4971953;28;20059;-59
2023/03/15 01:11:23;;;;;;;2.83;0.93;;;22.40;37.00;;;;;;4973392;28;20046;-59
2023/03/15 01:13:52;;;;;;;0.50;0.50;;;22.40;37.00;;;;;;4972710;28;20069;-59
2023/03/15 01:16:19;;;;;;;0.47;0.47;;;22.40;37.00;;;;;;4965230;28;20050;-59
2023/03/15 01:18:47;;;;;;;0.68;0.68;;;22.40;37.00;;;;;;4975143;28;20062;-59
2023/03/15 01:21:15;;;;;;;1.15;0.70;;;22.40;37.10;;;;;;4973733;28;20078;-59
2023/03/15 01:23:42;;;;;;;0.50;0.50;;;22.40;37.10;;;;;;4973619;28;20399;-59
2023/03/15 01:26:11;;;;;;;0.70;0.50;;;22.40;37.10;;;;;;4973942;28;20051;-59
2023/03/15 01:28:39;;;;;;;0.50;0.50;;;22.40;37.10;;;;;;4974768;28;20496;-59
2023/03/15 01:31:08;;;;;;;1.02;0.80;;;22.40;37.10;;;;;;4969117;28;20484;-59
2023/03/15 01:33:35;;;;;;;0.85;0.60;;;22.40;37.10;;;;;;4965214;28;20586;-59
2023/03/15 01:36:06;;;;;;;0.43;0.43;;;22.40;37.10;;;;;;4973509;28;20057;-59
2023/03/15 01:38:34;;;;;;;0.40;0.40;;;22.40;37.10;;;;;;4972863;28;20133;-59
2023/03/15 01:41:01;;;;;;;0.70;0.70;;;22.40;37.10;;;;;;4973580;28;20464;-59
2023/03/15 01:43:33;;;;;;;0.50;0.50;;;22.40;37.10;;;;;;4944217;28;20065;-59
2023/03/15 01:46:24;;;;;;;0.40;0.40;;;22.40;37.00;;;;;;4975707;28;20043;-59
2023/03/15 01:49:14;;;;;;;0.90;0.60;;;22.40;37.00;;;;;;4974375;28;20161;-59
2023/03/15 01:51:52;;;;;;;1.00;0.47;;;22.40;37.00;;;;;;4959646;28;20046;-59
2023/03/15 01:54:42;;;;;;;2.75;0.60;;;22.40;37.00;;;;;;4974713;28;20046;-59
2023/03/15 01:57:15;;;;;;;0.75;0.63;;;22.40;37.00;;;;;;4952864;28;20142;-59
2023/03/15 01:59:48;;;;;;;0.40;0.40;;;22.40;37.00;;;;;;4966112;28;20045;-59
2023/03/15 02:02:16;;;;;;;0.77;0.50;;;22.40;37.00;;;;;;4972670;28;20146;-59
2023/03/15 02:04:52;;;;;;;0.65;0.47;;;22.40;36.90;;;;;;4966212;28;20047;-60
2023/03/15 02:07:23;;;;;;;0.50;0.20;;;22.40;36.90;;;;;;4967097;28;20070;-59
2023/03/15 02:10:04;;;;;;;0.43;0.40;;;22.40;37.00;;;;;;4966328;28;20078;-59
2023/03/15 02:12:34;;;;;;;0.50;0.50;;;22.40;36.90;;;;;;4971746;28;20137;-59
2023/03/15 02:15:04;;;;;;;0.40;0.40;;;22.40;36.90;;;;;;4968584;28;20053;-59
2023/03/15 02:17:36;;;;;;;0.43;0.30;;;22.30;36.90;;;;;;4971252;28;20043;-59
2023/03/15 02:20:35;;;;;;;0.82;0.40;;;22.30;36.90;;;;;;4974545;28;20474;-59
2023/03/15 02:23:06;;;;;;;0.45;0.35;;;22.30;36.90;;;;;;4970434;28;20050;-59
2023/03/15 02:26:11;;;;;;;0.82;0.40;;;22.30;36.90;;;;;;4971423;28;20127;-59
2023/03/15 02:28:40;;;;;;;1.10;0.73;;;22.30;36.90;;;;;;4954735;28;20496;-59
2023/03/15 02:31:07;;;;;;;0.30;0.30;;;22.30;36.90;;;;;;4969735;28;20096;-59
2023/03/15 02:33:42;;;;;;;1.40;0.73;;;22.30;36.90;;;;;;4970986;28;20133;-59
2023/03/15 02:36:22;;;;;;;0.20;0.20;;;22.20;36.80;;;;;;4972826;28;20109;-60
2023/03/15 02:38:50;;;;;;;0.40;0.38;;;22.30;36.90;;;;;;4971899;28;20116;-59
2023/03/15 02:41:25;;;;;;;0.20;0.13;;;22.30;36.90;;;;;;4973135;28;20063;-59
2023/03/15 02:43:57;;;;;;;0.30;0.30;;;22.30;36.90;;;;;;4973424;28;20399;-59
2023/03/15 02:46:24;;;;;;;2.03;0.20;;;22.20;36.80;;;;;;4972974;28;20463;-59
2023/03/15 02:48:53;;;;;;;0.30;0.30;;;22.30;36.90;;;;;;4966118;28;20051;-59
2023/03/15 02:51:23;;;;;;;0.40;0.30;;;22.30;36.90;;;;;;4973900;28;20138;-59
2023/03/15 02:53:50;;;;;;;0.30;0.30;;;22.30;36.90;;;;;;4974355;28;20133;-59
2023/03/15 02:56:17;;;;;;;0.90;0.55;;;22.30;36.90;;;;;;4968089;28;20137;-60
2023/03/15 02:58:44;;;;;;;0.30;0.10;;;22.30;37.40;;;;;;4972033;28;20046;-59
2023/03/15 03:01:13;;;;;;;0.30;0.20;;;22.20;36.80;;;;;;4972204;28;20057;-59
2023/03/15 03:03:42;;;;;;;0.60;0.30;;;22.20;36.80;;;;;;4972956;28;20054;-59
2023/03/15 03:06:11;;;;;;;1.15;0.52;;;22.20;36.80;;;;;;4955450;28;20258;-59
2023/03/15 03:08:38;;;;;;;0.65;0.38;;;22.20;36.70;;;;;;4966434;28;20131;-59
2023/03/15 03:11:06;;;;;;;0.35;0.20;;;22.20;36.70;;;;;;4972989;28;20126;-59
2023/03/15 03:13:33;;;;;;;0.28;0.22;;;22.20;36.80;;;;;;4971260;28;20084;-59
2023/03/15 03:16:00;;;;;;;0.20;0.20;;;22.10;36.70;;;;;;4972070;28;20053;-59
2023/03/15 03:18:28;;;;;;;0.25;0.20;;;22.10;36.70;;;;;;4973269;28;20076;-59
2023/03/15 03:20:57;;;;;;;0.60;0.20;;;22.10;36.60;;;;;;4972634;28;20077;-59
2023/03/15 03:23:25;;;;;;;0.50;0.30;;;22.20;36.70;;;;;;4972049;28;20056;-59
2023/03/15 03:25:53;;;;;;;0.30;0.20;;;22.10;36.60;;;;;;4972242;28;20049;-59
2023/03/15 03:28:25;;;;;;;0.40;0.30;;;22.10;36.60;;;;;;4967101;28;20055;-59
2023/03/15 03:30:54;;;;;;;0.43;0.30;;;22.10;36.60;;;;;;4966397;28;20050;-59
2023/03/15 03:33:22;;;;;;;0.25;0.20;;;22.10;36.60;;;;;;4971450;28;20594;-60
2023/03/15 03:35:49;;;;;;;0.20;0.20;;;22.20;36.70;;;;;;4972144;28;20039;-59
2023/03/15 03:38:16;;;;;;;0.30;0.15;;;22.20;36.70;;;;;;4965789;28;20051;-59
2023/03/15 03:40:45;;;;;;;0.20;0.20;;;22.10;36.60;;;;;;4972951;28;20595;-59
2023/03/15 03:43:12;;;;;;;0.28;0.20;;;22.10;36.60;;;;;;4972337;28;20049;-59
2023/03/15 03:45:39;;;;;;;1.35;0.30;;;22.10;36.60;;;;;;4965873;28;20129;-59
2023/03/15 03:48:06;;;;;;;0.25;0.25;;;22.10;36.60;;;;;;4966218;28;20050;-59
2023/03/15 03:50:33;;;;;;;0.20;0.20;;;22.10;36.60;;;;;;4966842;28;20075;-59
2023/03/15 03:53:00;;;;;;;0.10;0.10;;;22.10;36.60;;;;;;4972730;28;20527;-59
2023/03/15 03:55:27;;;;;;;0.55;0.20;;;22.10;36.60;;;;;;4974614;28;20109;-59
2023/03/15 03:57:54;;;;;;;0.47;0.10;;;22.10;36.60;;;;;;4971994;28;20053;-59
2023/03/15 04:00:22;;;;;;;0.15;0.15;;;22.10;36.60;;;;;;4971925;28;20129;-59
2023/03/15 04:02:52;;;;;;;0.20;0.20;;;22.10;36.60;;;;;;4972341;28;20063;-59
2023/03/15 04:05:20;;;;;;;0.20;0.20;;;22.10;36.50;;;;;;4972683;28;20483;-59
2023/03/15 04:07:47;;;;;;;0.30;0.20;;;22.10;36.50;;;;;;4959701;28;20078;-59
2023/03/15 04:10:15;;;;;;;0.40;0.30;;;22.10;36.50;;;;;;4974469;28;20134;-60
2023/03/15 04:12:43;;;;;;;0.20;0.20;;;22.10;36.50;;;;;;4971345;28;20057;-60
2023/03/15 04:15:11;;;;;;;0.20;0.20;;;22.10;36.50;;;;;;4953888;28;20047;-59
2023/03/15 04:17:39;;;;;;;0.35;0.20;;;22.10;36.40;;;;;;4970355;28;20046;-60
2023/03/15 04:20:09;;;;;;;0.70;0.22;;;22.10;36.40;;;;;;4970472;28;20058;-60
2023/03/15 04:22:36;;;;;;;;;;;22.10;36.40;;;;;;4973227;28;20078;-60
2023/03/15 04:25:04;;;;;;;0.10;0.10;;;22.10;36.40;;;;;;4971365;28;20012;-60
2023/03/15 04:27:31;;;;;;;0.63;0.30;;;22.10;36.40;;;;;;4955204;28;20055;-60
2023/03/15 04:30:04;;;;;;;0.32;0.10;;;22.10;36.40;;;;;;4972838;28;20050;-59
2023/03/15 04:32:31;;;;;;;0.32;0.10;;;22.10;36.40;;;;;;4964927;28;20097;-60
2023/03/15 04:35:00;;;;;;;0.22;0.22;;;22.00;36.40;;;;;;4960210;28;20074;-60
2023/03/15 04:37:28;;;;;;;0.47;0.17;;;22.00;36.30;;;;;;4949780;28;20039;-59
2023/03/15 04:39:55;;;;;;;0.80;0.10;;;22.00;36.30;;;;;;4973217;28;20050;-59
2023/03/15 04:42:24;;;;;;;0.28;0.20;;;22.00;36.40;;;;;;4970047;28;20090;-59
2023/03/15 04:44:52;;;;;;;0.13;0.13;;;22.00;36.30;;;;;;4958958;28;20558;-59
2023/03/15 04:47:21;;;;;;;0.10;0.10;;;22.00;36.30;;;;;;4987838;28;20113;-59
2023/03/15 04:49:48;;;;;;;0.40;0.30;;;22.00;36.30;;;;;;4975777;28;20822;-60
2023/03/15 04:52:15;;;;;;;0.10;0.10;;;22.00;36.30;;;;;;4969997;28;20057;-60
2023/03/15 04:54:42;;;;;;;0.38;0.20;;;22.00;36.30;;;;;;4975101;28;20042;-59
2023/03/15 04:57:10;;;;;;;0.20;0.20;;;22.00;36.30;;;;;;4975086;28;20053;-59
2023/03/15 04:59:37;;;;;;;0.00;0.00;;;22.00;36.30;;;;;;4956014;28;20122;-60
2023/03/15 05:02:04;;;;;;;0.40;0.10;;;22.00;36.40;;;;;;4956728;28;20074;-59
2023/03/15 05:04:31;;;;;;;0.10;0.10;;;22.00;36.30;;;;;;4976179;28;20043;-59
2023/03/15 05:06:58;;;;;;;0.10;0.10;;;22.00;36.30;;;;;;4959595;28;20043;-59
2023/03/15 05:09:25;;;;;;;0.32;0.10;;;22.00;36.30;;;;;;4975017;28;20068;-59
2023/03/15 05:11:53;;;;;;;0.60;0.10;;;22.00;36.30;;;;;;4974359;28;20082;-59
2023/03/15 05:14:20;;;;;;;0.00;0.00;;;22.00;36.30;;;;;;4986838;28;20082;-59
2023/03/15 05:16:48;;;;;;;0.00;0.00;;;22.00;36.20;;;;;;4970227;28;20440;-60
2023/03/15 05:19:15;;;;;;;0.00;0.00;;;22.00;36.20;;;;;;4970574;28;20340;-59
2023/03/15 05:21:42;;;;;;;0.25;0.10;;;22.00;36.20;;;;;;4965657;28;20069;-60
2023/03/15 05:24:09;;;;;;;0.47;0.30;;;22.00;36.20;;;;;;4974775;28;20435;-60
2023/03/15 05:26:36;;;;;;;0.20;0.20;;;21.90;36.10;;;;;;4946400;28;20500;-62
2023/03/15 05:29:03;;;;;;;0.10;0.10;;;22.00;36.20;;;;;;4976403;28;20051;-59
2023/03/15 05:31:35;;;;;;;0.65;0.20;;;22.00;36.20;;;;;;4974556;28;20058;-59
2023/03/15 05:34:03;;;;;;;0.20;0.20;;;22.00;36.20;;;;;;4964352;28;20125;-59
2023/03/15 05:36:31;;;;;;;0.20;0.20;;;22.00;36.10;;;;;;4973901;28;20078;-59
2023/03/15 05:38:58;;;;;;;0.10;0.00;;;21.90;35.90;;;;;;4971415;28;20043;-59
2023/03/15 05:41:25;;;;;;;0.63;0.38;;;21.90;35.80;;;;;;4970385;28;20053;-60
2023/03/15 05:43:52;;;;;;;1.15;0.00;;;21.90;35.70;;;;;;4975277;28;20384;-59
2023/03/15 05:46:21;;;;;;;0.40;0.10;;;21.90;36.20;;;;;;4965412;28;20053;-59
2023/03/15 05:48:48;;;;;;;0.10;0.10;;;21.80;35.60;;;;;;4973005;28;20113;-60
2023/03/15 05:51:16;;;;;;;0.20;0.05;;;21.90;35.60;;;;;;4968960;28;20071;-59
2023/03/15 05:53:43;;;;;;;0.22;0.20;;;21.80;35.50;;;;;;4975452;28;20049;-60
2023/03/15 05:56:12;;;;;;;0.10;0.10;;;21.80;35.60;;;;;;4977144;28;20054;-59
2023/03/15 05:58:39;;;;;;;0.10;0.10;;;21.80;35.50;;;;;;4967732;28;20062;-59
2023/03/15 06:01:06;;;;;;;0.60;0.10;;;21.90;35.60;;;;;;4974969;28;20466;-60
2023/03/15 06:03:33;;;;;;;0.10;0.10;;;21.90;35.60;;;;;;4972696;28;20046;-59
2023/03/15 06:06:02;;;;;;;0.30;0.10;;;21.90;35.50;;;;;;4943055;28;20067;-59
2023/03/15 06:08:29;;;;;;;0.00;0.00;;;21.90;35.40;;;;;;4969758;28;20138;-59
2023/03/15 06:10:56;;;;;;;0.10;0.10;;;21.90;35.40;;;;;;4970537;28;20400;-59
2023/03/15 06:13:23;;;;;;;0.30;0.10;;;21.90;35.30;;;;;;4973712;28;20054;-59
2023/03/15 06:15:51;;;;;;;0.10;0.10;;;21.90;35.30;;;;;;4972909;28;20051;-60
2023/03/15 06:18:18;;;;;;;0.10;0.00;;;22.00;35.20;;;;;;4974171;28;20137;-59
2023/03/15 06:20:45;;;;;;;0.13;0.13;;;22.00;35.10;;;;;;4967616;28;20057;-61
2023/03/15 06:23:12;;;;;;;0.10;0.10;;;22.00;35.00;;;;;;4972676;28;20487;-59
2023/03/15 06:25:39;;;;;;;0.10;0.10;;;22.00;34.90;;;;;;4974127;28;20051;-60
2023/03/15 06:28:06;;;;;;;0.30;0.10;;;22.10;34.90;;;;;;4973085;28;20097;-59
2023/03/15 06:30:34;;;;;;;0.10;0.10;;;22.10;34.80;;;;;;4963993;28;20134;-59
2023/03/15 06:33:01;;;;;;;0.00;0.00;;;22.10;34.70;;;;;;4957596;28;20065;-59
2023/03/15 06:35:29;;;;;;;0.00;0.00;;;22.10;34.60;;;;;;4968097;28;20051;-59
2023/03/15 06:37:56;;;;;;;0.00;0.00;;;22.10;34.40;;;;;;4950435;28;20061;-59
2023/03/15 06:40:23;;;;;;;0.00;0.00;;;22.20;34.50;;;;;;4969331;28;20043;-59
2023/03/15 06:42:50;;;;;;;0.28;0.20;;;22.20;34.40;;;;;;4974577;28;20495;-59
2023/03/15 06:45:17;;;;;;;0.10;0.10;;;22.30;34.40;;;;;;4954204;28;20050;-59
2023/03/15 06:47:44;;;;;;;0.10;0.10;;;22.30;34.30;;;;;;4967029;28;20134;-59
2023/03/15 06:50:11;;;;;;;0.28;0.17;;;22.30;34.30;;;;;;4971493;28;20496;-59
2023/03/15 06:52:39;;;;;;;0.10;0.10;;;22.30;34.10;;;;;;4960198;28;20074;-59
2023/03/15 06:55:06;;;;;;;0.20;0.10;;;22.30;34.10;;;;;;4972850;28;20057;-60
2023/03/15 06:57:33;;;;;;;0.35;0.10;;;22.30;34.00;;;;;;4972997;28;20065;-59
2023/03/15 07:00:01;;;;;;;0.20;0.10;;;22.30;33.90;;;;;;4965464;28;20138;-60
2023/03/15 07:02:32;;;;;;;0.38;0.05;;;22.40;33.90;;;;;;4963636;28;20057;-59
2023/03/15 07:05:00;;;;;;;2.25;0.17;;;22.40;33.80;;;;;;4972742;28;20486;-60
2023/03/15 07:07:27;;;;;;;0.00;0.00;;;22.40;33.70;;;;;;4961432;28;20046;-59
2023/03/15 07:09:54;;;;;;;0.95;0.10;;;22.40;33.70;;;;;;4947972;28;20133;-60
2023/03/15 07:12:21;;;;;;;0.22;0.10;;;22.50;33.60;;;;;;4973055;28;20397;-59
2023/03/15 07:14:48;;;;;;;0.10;0.10;;;22.40;33.50;;;;;;4966774;28;20053;-59
2023/03/15 07:17:15;;;;;;;0.55;0.22;;;22.50;33.50;;;;;;4965977;28;20047;-59
2023/03/15 07:19:42;;;;;;;0.20;0.08;;;22.50;33.40;;;;;;4970255;28;20052;-59
2023/03/15 07:22:22;;;;;;;1.77;0.10;;;22.50;33.40;;;;;;4966889;28;20046;-60
2023/03/15 07:24:50;;;;;;;0.30;0.20;;;22.50;33.90;;;;;;4960748;28;20131;-59
2023/03/15 07:27:17;;;;;;;0.20;0.10;;;22.60;33.30;;;;;;4967646;28;20046;-59
2023/03/15 07:29:45;;;;;;;0.10;0.10;;;22.60;33.20;;;;;;4955500;28;20050;-59
2023/03/15 07:32:12;;;;;;;0.30;0.20;;;22.60;33.20;;;;;;4967836;28;20047;-59
2023/03/15 07:34:40;;;;;;;0.20;0.20;;;22.60;33.10;;;;;;4972674;28;20093;-59
2023/03/15 07:37:07;;;;;;;0.15;0.10;;;22.60;33.00;;;;;;4967607;28;20467;-59
2023/03/15 07:39:34;;;;;;;0.32;0.05;;;22.70;33.00;;;;;;4962466;28;20078;-59
2023/03/15 07:42:01;;;;;;;0.10;0.10;;;22.70;33.00;;;;;;4957947;28;20523;-59
2023/03/15 07:44:29;;;;;;;0.68;0.22;;;22.70;32.90;;;;;;4972382;28;20051;-59
2023/03/15 07:46:56;;;;;;;1.00;0.20;;;22.70;32.80;;;;;;4966547;28;20143;-59
2023/03/15 07:49:23;;;;;;;0.20;0.17;;;22.80;32.80;;;;;;4973267;28;20070;-59
2023/03/15 07:51:50;;;;;;;0.47;0.40;;;22.80;32.70;;;;;;4972353;28;20047;-59
2023/03/15 07:54:18;;;;;;;0.00;0.00;;;22.80;32.60;;;;;;4969497;28;20054;-59
2023/03/15 07:56:45;;;;;;;0.25;0.25;;;22.80;32.50;;;;;;4973412;28;20061;-59
2023/03/15 07:59:12;;;;;;;0.28;0.20;;;22.80;32.40;;;;;;4972849;28;20051;-59
2023/03/15 08:01:39;;;;;;;1.35;0.47;;;22.80;32.30;;;;;;4971888;28;20462;-60
2023/03/15 08:04:06;;;;;;;0.70;0.30;;;22.80;32.20;;;;;;4972951;28;20077;-60
2023/03/15 08:06:34;;;;;;;0.32;0.13;;;22.80;32.20;;;;;;4957683;28;20043;-59
2023/03/15 08:09:04;;;;;;;0.52;0.50;;;22.90;32.20;;;;;;4966421;28;20110;-59
2023/03/15 08:11:32;;;;;;;;;;;22.90;32.10;;;;;;4974163;28;20070;-59
2023/03/15 08:13:59;;;;;;;0.68;0.30;;;22.90;31.90;;;;;;4973300;28;19969;-59
2023/03/15 08:16:26;;;;;;;0.32;0.20;;;22.90;31.90;;;;;;4974926;28;20053;-59
2023/03/15 08:18:53;;;;;;;1.23;0.40;;;22.90;31.80;;;;;;4975818;28;20077;-59
2023/03/15 08:21:21;;;;;;;0.10;0.10;;;22.90;31.80;;;;;;4975873;28;20038;-59
2023/03/15 08:23:48;;;;;;;0.35;0.28;;;23.00;31.80;;;;;;4961653;28;20091;-59
2023/03/15 08:26:15;;;;;;;2.05;0.70;;;23.00;31.70;;;;;;4949858;28;20118;-60
2023/03/15 08:28:42;;;;;;;1.65;0.20;;;23.00;31.60;;;;;;4971088;28;20054;-60
2023/03/15 08:31:12;;;;;;;0.70;0.20;;;23.10;31.50;;;;;;4975951;28;20392;-59
2023/03/15 08:33:40;;;;;;;0.40;0.20;;;23.10;31.40;;;;;;4969665;28;20456;-59
2023/03/15 08:36:07;;;;;;;0.30;0.30;;;23.20;31.30;;;;;;4976251;28;20145;-61
2023/03/15 08:38:35;;;;;;;0.65;0.30;;;23.20;31.20;;;;;;4958911;28;20407;-59
2023/03/15 08:41:02;;;;;;;0.30;0.30;;;23.20;31.10;;;;;;4974086;28;20571;-59
2023/03/15 08:43:29;;;;;;;0.15;0.10;;;23.30;30.90;;;;;;4975868;28;20090;-60
2023/03/15 08:45:57;;;;;;;0.38;0.20;;;23.30;30.80;;;;;;4966994;28;20138;-60
2023/03/15 08:48:28;;;;;;;0.63;0.40;;;23.30;30.80;;;;;;4953592;28;20039;-59
2023/03/15 08:51:01;;;;;;;0.60;0.30;;;23.30;30.70;;;;;;4971670;28;20134;-59
2023/03/15 08:53:29;;;;;;;1.30;0.50;;;23.40;30.60;;;;;;4974426;28;20813;-60
2023/03/15 08:55:57;;;;;;;0.30;0.20;;;23.40;30.50;;;;;;4966205;28;20050;-59
2023/03/15 08:58:24;;;;;;;0.80;0.20;;;23.40;30.30;;;;;;4974087;28;20130;-60
2023/03/15 09:00:52;;;;;;;0.32;0.20;;;23.50;30.30;;;;;;4974045;28;20129;-59
2023/03/15 09:03:21;;;;;;;1.48;0.47;;;23.50;30.30;;;;;;4969747;28;20134;-60
2023/03/15 09:05:48;;;;;;;0.70;0.25;;;23.50;30.20;;;;;;4974279;28;20097;-59
2023/03/15 09:08:19;;;;;;;0.70;0.35;;;23.50;30.20;;;;;;4974663;28;20074;-60
2023/03/15 09:10:47;;;;;;;0.30;0.30;;;23.60;30.10;;;;;;4965201;28;20511;-60
2023/03/15 09:13:14;;;;;;;0.52;0.20;;;23.60;30.00;;;;;;4970410;28;20109;-60
2023/03/15 09:15:41;;;;;;;1.23;0.65;;;23.60;30.00;;;;;;4958518;28;20137;-60
2023/03/15 09:18:08;;;;;;;0.75;0.30;;;23.60;30.00;;;;;;4973376;28;20086;-60
2023/03/15 09:20:35;;;;;;;1.33;0.40;;;23.60;30.00;;;;;;4975310;28;20461;-60
2023/03/15 09:23:02;;;;;;;1.25;0.40;;;23.70;30.00;;;;;;4959175;28;20053;-60
2023/03/15 09:25:30;;;;;;;0.20;0.20;;;23.70;30.00;;;;;;4975375;28;20046;-60
2023/03/15 09:27:57;;;;;;;2.03;0.40;;;23.70;30.00;;;;;;4970870;28;20079;-60
2023/03/15 09:30:24;;;;;;;0.20;0.15;;;23.70;29.90;;;;;;4976686;28;20113;-60
2023/03/15 09:32:51;;;;;;;0.55;0.40;;;23.70;29.90;;;;;;4969447;28;20082;-60
2023/03/15 09:35:19;;;;;;;0.40;0.20;;;23.70;29.90;;;;;;4966464;28;20054;-60
2023/03/15 09:37:48;;;;;;;0.47;0.32;;;23.70;29.70;;;;;;4933009;28;20510;-60
2023/03/15 09:40:29;;;;;;;0.70;0.30;;;23.70;29.70;;;;;;4957377;28;20057;-59
2023/03/15 09:43:36;;;;;;;0.68;0.28;;;23.80;29.70;;;;;;4973569;28;20079;-59
2023/03/15 09:46:31;;;;;;;0.30;0.30;;;23.80;29.60;;;;;;4973232;28;20055;-59
2023/03/15 09:49:25;;;;;;;1.98;0.60;;;23.80;29.60;;;;;;4964500;28;20043;-60
2023/03/15 09:52:07;;;;;;;1.30;0.40;;;23.80;29.50;;;;;;4969331;28;20499;-60
2023/03/15 09:54:47;;;;;;;0.90;0.55;;;23.80;29.50;;;;;;4972054;28;20039;-60
2023/03/15 09:57:21;;;;;;;0.70;0.50;;;23.80;29.40;;;;;;4976500;28;20051;-60
2023/03/15 09:59:52;;;;;;;3.17;0.60;;;23.90;29.50;;;;;;4963651;28;20050;-60
2023/03/15 10:02:27;;;;;;;0.90;0.70;;;23.90;29.50;;;;;;4961839;28;20121;-60
2023/03/15 10:05:12;;;;;;;3.35;0.40;;;23.90;29.40;;;;;;4972637;28;20541;-60
2023/03/15 10:07:40;;;;;;;1.63;0.30;;;23.90;29.80;;;;;;4975169;28;20046;-60
2023/03/15 10:10:35;;;;;;;1.98;0.50;;;23.90;29.30;;;;;;4968953;28;20046;-59
2023/03/15 10:13:26;;;;;;;0.50;0.40;;;23.90;29.20;;;;;;4974015;28;20046;-61
2023/03/15 10:16:20;;;;;;;0.45;0.45;;;23.90;29.20;;;;;;4963871;28;20514;-59
2023/03/15 10:19:26;;;;;;;0.50;0.50;;;23.90;29.20;;;;;;4974006;28;20488;-60
2023/03/15 10:22:21;;;;;;;0.65;0.43;;;23.90;29.20;;;;;;4973433;28;20055;-59
2023/03/15 10:25:08;;;;;;;1.55;1.00;;;24.00;29.20;;;;;;4955697;28;20043;-59
2023/03/15 10:27:59;;;;;;;0.40;0.40;;;24.00;29.10;;;;;;4950906;28;20097;-59
2023/03/15 10:30:29;;;;;;;1.20;0.40;;;24.00;29.20;;;;;;4967403;28;20061;-59
2023/03/15 10:33:20;;;;;;;0.68;0.50;;;24.00;29.10;;;;;;4973484;28;20050;-59
2023/03/15 10:35:48;;;;;;;1.13;0.38;;;24.00;29.00;;;;;;4982270;28;20046;-59
2023/03/15 10:38:20;;;;;;;1.08;0.73;;;24.10;29.10;;;;;;4972963;28;20046;-59
2023/03/15 10:40:51;;;;;;;0.50;0.50;;;24.10;29.10;;;;;;4977371;28;20607;-59
2023/03/15 10:43:28;;;;;;;1.08;0.80;;;24.10;28.90;;;;;;4951652;28;20105;-59
2023/03/15 10:46:10;;;;;;;1.35;0.50;;;24.20;28.90;;;;;;4973075;28;20586;-59
2023/03/15 10:49:08;;;;;;;0.50;0.50;;;24.20;28.90;;;;;;4970556;28;20049;-59
2023/03/15 10:51:42;;;;;;;0.52;0.30;;;24.30;28.90;;;;;;4964281;28;20484;-61
2023/03/15 10:54:18;;;;;;;0.30;0.30;;;24.30;28.80;;;;;;4968766;28;20129;-59
2023/03/15 10:57:14;;;;;;;1.23;0.75;;;24.30;28.70;;;;;;4966984;28;20061;-59
2023/03/15 11:00:05;;;;;;;0.40;0.40;;;24.30;28.60;;;;;;5110429;27;20411;-59
2023/03/15 11:02:32;;;;;;;1.30;0.77;;;24.40;28.50;;;;;;5105910;28;20139;-60
2023/03/15 11:05:16;;;;;;;0.52;0.50;;;24.40;28.60;;;;;;5108794;28;20434;-59
2023/03/15 11:07:58;;;;;;;0.85;0.85;;;24.40;28.50;;;;;;5107098;28;20506;-60
2023/03/15 11:10:28;;;;;;;1.15;0.55;;;24.50;28.60;;;;;;5091676;28;20054;-59
2023/03/15 11:13:16;;;;;;;1.02;0.52;;;24.40;28.40;;;;;;5107286;28;20040;-60
2023/03/15 11:16:05;;;;;;;2.08;0.70;;;24.50;28.30;;;;;;5108517;28;20055;-60
2023/03/15 11:18:41;;;;;;;1.35;0.80;;;24.50;28.30;;;;;;5107114;28;20039;-63
2023/03/15 11:21:15;;;;;;;1.42;0.43;;;24.50;28.30;;;;;;5110123;28;20373;-59
2023/03/15 11:23:47;;;;;;;0.55;0.55;;;24.50;28.20;;;;;;5107899;28;20101;-60
2023/03/15 11:26:21;;;;;;;1.67;0.80;;;24.50;28.30;;;;;;5106947;28;20462;-60
2023/03/15 11:29:03;;;;;;;0.75;0.47;;;24.50;28.30;;;;;;5108149;28;20493;-59
2023/03/15 11:31:32;;;;;;;0.57;0.45;;;24.50;28.30;;;;;;5107978;28;20480;-60
2023/03/15 11:34:26;;;;;;;0.90;0.50;;;24.50;28.30;;;;;;5106968;28;20048;-60
2023/03/15 11:36:59;;;;;;;1.00;0.40;;;24.50;28.30;;;;;;5108440;28;20083;-59
2023/03/15 11:39:46;;;;;;;0.70;0.55;;;24.50;28.30;;;;;;5108727;28;20051;-59
2023/03/15 11:42:27;;;;;;;0.85;0.40;;;24.50;28.20;;;;;;5108243;28;20044;-59
2023/03/15 11:45:00;;;;;;;1.50;0.68;;;24.50;28.20;;;;;;5106798;28;20051;-59
2023/03/15 11:47:55;;;;;;;1.13;0.50;;;24.60;28.20;;;;;;5106316;28;20047;-59
2023/03/15 11:50:22;;;;;;;1.20;0.63;;;24.60;28.20;;;;;;5108199;28;20131;-59
2023/03/15 11:52:51;;;;;;;1.17;0.80;;;24.50;28.20;;;;;;5107410;28;20048;-60
2023/03/15 11:55:27;;;;;;;1.00;0.40;;;24.50;28.10;;;;;;5108514;28;20048;-59
2023/03/15 11:57:56;;;;;;;0.98;0.82;;;24.50;28.10;;;;;;5108408;28;20047;-60
2023/03/15 12:00:48;;;;;;;1.08;0.30;;;24.60;28.10;;;;;;5108982;28;20067;-60
2023/03/15 12:03:41;;;;;;;1.67;0.57;;;24.60;28.10;;;;;;5107303;28;20507;-59
2023/03/15 12:06:12;;;;;;;1.08;0.50;;;24.60;28.00;;;;;;5107637;28;20040;-60
2023/03/15 12:08:41;;;;;;;;;;;24.60;28.00;;;;;;5108749;28;20039;-59
2023/03/15 12:11:35;;;;;;;0.98;0.40;;;24.60;28.00;;;;;;5095589;28;19959;-59
2023/03/15 12:14:05;;;;;;;0.47;0.30;;;24.70;28.00;;;;;;5092381;28;20480;-59
2023/03/15 12:16:40;;;;;;;1.48;0.63;;;24.70;27.90;;;;;;5094832;28;20143;-59
2023/03/15 12:19:21;;;;;;;0.80;0.57;;;24.70;27.80;;;;;;5093556;28;20063;-59
2023/03/15 12:21:56;;;;;;;1.20;0.75;;;24.70;27.80;;;;;;5094304;28;20480;-60
2023/03/15 12:24:30;;;;;;;1.50;0.60;;;24.70;27.80;;;;;;5094308;28;20079;-59
2023/03/15 12:27:05;;;;;;;1.15;0.43;;;24.70;27.80;;;;;;5092910;28;20567;-59
2023/03/15 12:29:35;;;;;;;1.23;0.55;;;24.70;27.80;;;;;;5091881;28;20572;-59
2023/03/15 12:32:13;;;;;;;0.73;0.38;;;24.70;27.70;;;;;;5093548;28;20048;-59
2023/03/15 12:34:54;;;;;;;2.00;0.93;;;24.60;27.60;;;;;;5094285;28;20048;-59
2023/03/15 12:37:43;;;;;;;1.05;0.50;;;24.60;27.70;;;;;;5094347;28;20050;-59
2023/03/15 12:40:37;;;;;;;0.47;0.40;;;24.60;27.60;;;;;;5091541;28;20044;-59
2023/03/15 12:43:04;;;;;;;1.58;0.43;;;24.60;27.60;;;;;;5092828;28;20119;-59
2023/03/15 12:45:36;;;;;;;2.85;0.50;;;24.60;27.60;;;;;;5094056;28;20083;-59
2023/03/15 12:48:20;;;;;;;1.77;0.50;;;24.60;27.60;;;;;;5094314;28;20081;-59
2023/03/15 12:50:52;;;;;;;0.57;0.52;;;24.60;27.50;;;;;;5092427;28;20093;-61
2023/03/15 12:53:38;;;;;;;0.55;0.52;;;24.60;27.50;;;;;;5093133;28;20052;-59
2023/03/15 12:56:34;;;;;;;1.55;0.30;;;24.60;27.60;;;;;;5093070;28;20036;-59
2023/03/15 12:59:15;;;;;;;0.93;0.38;;;24.60;27.60;;;;;;5093239;28;20117;-59
2023/03/15 13:01:43;;;;;;;0.57;0.35;;;24.60;27.50;;;;;;5094111;28;21911;-59
2023/03/15 13:04:12;;;;;;;1.73;0.60;;;24.60;27.50;;;;;;5093929;28;20063;-59
2023/03/15 13:07:06;;;;;;;0.63;0.50;;;24.60;27.90;;;;;;5092642;28;20087;-59
2023/03/15 13:09:48;;;;;;;0.90;0.22;;;24.60;27.40;;;;;;5093733;28;20048;-59
2023/03/15 13:12:34;;;;;;;2.13;0.40;;;24.60;27.40;;;;;;5092432;28;20123;-59